sensor_id;sensor_type;location;lat;lon;timestamp;temperature;humidity
6740;DHT22;3407;49.882;10.920;2023-07-13T00:03:11;22.60;75.40
6740;DHT22;3407;49.882;10.920;2023-07-13T00:08:08;22.60;77.40
6740;DHT22;3407;49.882;10.920;2023-07-13T00:13:04;22.50;81.30
6740;DHT22;3407;49.882;10.920;2023-07-13T00:17:59;22.50;83.60
6740;DHT22;3407;49.882;10.920;2023-07-13T00:22:56;22.30;85.90
6740;DHT22;3407;49.882;10.920;2023-07-13T00:27:52;22.20;90.30
6740;DHT22;3407;49.882;10.920;2023-07-13T00:32:47;22.10;91.00
6740;DHT22;3407;49.882;10.920;2023-07-13T00:37:43;22.10;93.20
6740;DHT22;3407;49.882;10.920;2023-07-13T00:42:39;21.90;93.90
6740;DHT22;3407;49.882;10.920;2023-07-13T00:47:34;21.80;95.00
6740;DHT22;3407;49.882;10.920;2023-07-13T00:52:30;21.60;97.30
6740;DHT22;3407;49.882;10.920;2023-07-13T00:57:26;21.50;99.90
6740;DHT22;3407;49.882;10.920;2023-07-13T01:02:22;21.30;99.90
6740;DHT22;3407;49.882;10.920;2023-07-13T01:07:18;21.30;99.90
6740;DHT22;3407;49.882;10.920;2023-07-13T01:12:14;21.30;99.90
6740;DHT22;3407;49.882;10.920;2023-07-13T01:17:10;21.10;99.90
6740;DHT22;3407;49.882;10.920;2023-07-13T01:22:09;21.00;99.90
6740;DHT22;3407;49.882;10.920;2023-07-13T01:27:08;20.80;99.90
6740;DHT22;3407;49.882;10.920;2023-07-13T01:32:05;20.80;99.90
6740;DHT22;3407;49.882;10.920;2023-07-13T01:37:04;20.70;99.90
6740;DHT22;3407;49.882;10.920;2023-07-13T01:42:00;20.60;99.90
6740;DHT22;3407;49.882;10.920;2023-07-13T01:46:57;20.60;99.90
6740;DHT22;3407;49.882;10.920;2023-07-13T01:51:52;20.60;99.90
6740;DHT22;3407;49.882;10.920;2023-07-13T01:56:48;20.50;99.90
6740;DHT22;3407;49.882;10.920;2023-07-13T02:01:44;20.50;99.90
6740;DHT22;3407;49.882;10.920;2023-07-13T02:06:39;20.30;99.90
6740;DHT22;3407;49.882;10.920;2023-07-13T02:11:34;20.10;99.90
6740;DHT22;3407;49.882;10.920;2023-07-13T02:16:30;19.90;99.90
6740;DHT22;3407;49.882;10.920;2023-07-13T02:21:26;19.80;99.90
6740;DHT22;3407;49.882;10.920;2023-07-13T02:26:21;19.80;99.90
6740;DHT22;3407;49.882;10.920;2023-07-13T02:31:17;19.80;99.90
6740;DHT22;3407;49.882;10.920;2023-07-13T02:36:13;19.80;99.90
6740;DHT22;3407;49.882;10.920;2023-07-13T02:41:11;19.80;99.90
6740;DHT22;3407;49.882;10.920;2023-07-13T02:46:07;19.80;99.90
6740;DHT22;3407;49.882;10.920;2023-07-13T02:51:03;19.70;99.90
6740;DHT22;3407;49.882;10.920;2023-07-13T02:55:59;19.60;99.90
6740;DHT22;3407;49.882;10.920;2023-07-13T03:00:56;19.40;99.90
6740;DHT22;3407;49.882;10.920;2023-07-13T03:05:59;19.20;99.90
6740;DHT22;3407;49.882;10.920;2023-07-13T03:11:03;19.10;99.90
6740;DHT22;3407;49.882;10.920;2023-07-13T03:15:59;19.10;99.90
6740;DHT22;3407;49.882;10.920;2023-07-13T03:20:54;19.10;99.90
6740;DHT22;3407;49.882;10.920;2023-07-13T03:25:50;19.20;99.90
6740;DHT22;3407;49.882;10.920;2023-07-13T03:30:45;19.00;99.90
6740;DHT22;3407;49.882;10.920;2023-07-13T03:35:41;18.90;1.00
6740;DHT22;3407;49.882;10.920;2023-07-13T03:40:36;18.70;1.00
6740;DHT22;3407;49.882;10.920;2023-07-13T03:45:32;18.40;1.00
6740;DHT22;3407;49.882;10.920;2023-07-13T03:50:27;18.20;1.00
6740;DHT22;3407;49.882;10.920;2023-07-13T03:55:23;18.10;85.60
6740;DHT22;3407;49.882;10.920;2023-07-13T04:00:19;18.20;29.00
6740;DHT22;3407;49.882;10.920;2023-07-13T04:05:15;18.10;93.00
6740;DHT22;3407;49.882;10.920;2023-07-13T04:10:11;18.10;46.60
6740;DHT22;3407;49.882;10.920;2023-07-13T04:15:07;18.20;98.50
6740;DHT22;3407;49.882;10.920;2023-07-13T04:20:03;18.30;99.90
6740;DHT22;3407;49.882;10.920;2023-07-13T04:24:59;18.40;3.90
6740;DHT22;3407;49.882;10.920;2023-07-13T04:29:55;18.70;1.00
6740;DHT22;3407;49.882;10.920;2023-07-13T04:34:50;19.00;1.00
6740;DHT22;3407;49.882;10.920;2023-07-13T04:39:48;19.20;99.90
6740;DHT22;3407;49.882;10.920;2023-07-13T04:44:50;19.60;99.90
6740;DHT22;3407;49.882;10.920;2023-07-13T04:49:46;19.70;99.90
6740;DHT22;3407;49.882;10.920;2023-07-13T04:54:42;19.30;99.90
6740;DHT22;3407;49.882;10.920;2023-07-13T04:59:37;19.40;99.90
6740;DHT22;3407;49.882;10.920;2023-07-13T05:04:33;19.40;99.90
6740;DHT22;3407;49.882;10.920;2023-07-13T05:09:28;20.90;99.90
6740;DHT22;3407;49.882;10.920;2023-07-13T05:14:24;22.40;99.90
6740;DHT22;3407;49.882;10.920;2023-07-13T05:19:19;23.00;99.90
6740;DHT22;3407;49.882;10.920;2023-07-13T05:24:15;23.20;99.90
6740;DHT22;3407;49.882;10.920;2023-07-13T05:29:11;25.20;99.90
6740;DHT22;3407;49.882;10.920;2023-07-13T05:34:06;25.80;99.90
6740;DHT22;3407;49.882;10.920;2023-07-13T05:39:03;25.20;99.90
6740;DHT22;3407;49.882;10.920;2023-07-13T05:44:00;24.60;99.90
6740;DHT22;3407;49.882;10.920;2023-07-13T05:48:55;23.60;99.90
6740;DHT22;3407;49.882;10.920;2023-07-13T05:53:51;23.00;99.90
6740;DHT22;3407;49.882;10.920;2023-07-13T05:58:48;22.90;99.90
6740;DHT22;3407;49.882;10.920;2023-07-13T06:03:44;22.80;99.90
6740;DHT22;3407;49.882;10.920;2023-07-13T06:08:39;23.10;99.90
6740;DHT22;3407;49.882;10.920;2023-07-13T06:13:35;23.30;99.90
6740;DHT22;3407;49.882;10.920;2023-07-13T06:18:32;23.60;99.90
6740;DHT22;3407;49.882;10.920;2023-07-13T06:23:28;24.20;99.90
6740;DHT22;3407;49.882;10.920;2023-07-13T06:28:23;24.10;94.80
6740;DHT22;3407;49.882;10.920;2023-07-13T06:33:19;24.20;93.30
6740;DHT22;3407;49.882;10.920;2023-07-13T06:38:14;24.00;91.40
6740;DHT22;3407;49.882;10.920;2023-07-13T06:43:10;24.40;90.00
6740;DHT22;3407;49.882;10.920;2023-07-13T06:48:05;25.20;90.70
6740;DHT22;3407;49.882;10.920;2023-07-13T06:53:01;27.40;69.90
6740;DHT22;3407;49.882;10.920;2023-07-13T06:57:57;28.60;46.90
6740;DHT22;3407;49.882;10.920;2023-07-13T07:02:53;28.70;39.20
6740;DHT22;3407;49.882;10.920;2023-07-13T07:07:53;27.80;57.20
6740;DHT22;3407;49.882;10.920;2023-07-13T07:12:49;27.90;39.70
6740;DHT22;3407;49.882;10.920;2023-07-13T07:17:44;28.30;35.60
6740;DHT22;3407;49.882;10.920;2023-07-13T07:22:40;28.70;34.70
6740;DHT22;3407;49.882;10.920;2023-07-13T07:27:35;28.50;32.20
6740;DHT22;3407;49.882;10.920;2023-07-13T07:32:31;28.20;29.40
6740;DHT22;3407;49.882;10.920;2023-07-13T07:37:27;27.40;30.40
6740;DHT22;3407;49.882;10.920;2023-07-13T07:42:22;26.30;33.30
6740;DHT22;3407;49.882;10.920;2023-07-13T07:47:18;26.10;37.30
6740;DHT22;3407;49.882;10.920;2023-07-13T07:52:13;25.90;37.40
6740;DHT22;3407;49.882;10.920;2023-07-13T07:57:09;26.30;35.80
6740;DHT22;3407;49.882;10.920;2023-07-13T08:02:05;26.90;31.10
6740;DHT22;3407;49.882;10.920;2023-07-13T08:07:01;26.70;30.50
6740;DHT22;3407;49.882;10.920;2023-07-13T08:11:58;27.50;25.80
6740;DHT22;3407;49.882;10.920;2023-07-13T08:16:53;26.90;24.70
6740;DHT22;3407;49.882;10.920;2023-07-13T08:21:49;26.80;23.10
6740;DHT22;3407;49.882;10.920;2023-07-13T08:26:45;27.10;23.20
6740;DHT22;3407;49.882;10.920;2023-07-13T08:31:41;27.40;19.00
6740;DHT22;3407;49.882;10.920;2023-07-13T08:36:37;28.10;16.30
6740;DHT22;3407;49.882;10.920;2023-07-13T08:41:33;29.10;12.30
6740;DHT22;3407;49.882;10.920;2023-07-13T08:46:35;29.80;8.40
6740;DHT22;3407;49.882;10.920;2023-07-13T08:51:46;29.00;4.10
6740;DHT22;3407;49.882;10.920;2023-07-13T08:56:45;29.00;1.90
6740;DHT22;3407;49.882;10.920;2023-07-13T09:02:07;29.40;1.00
6740;DHT22;3407;49.882;10.920;2023-07-13T09:12:50;30.60;1.00
6740;DHT22;3407;49.882;10.920;2023-07-13T09:17:51;31.20;1.00
6740;DHT22;3407;49.882;10.920;2023-07-13T09:22:49;31.40;1.00
6740;DHT22;3407;49.882;10.920;2023-07-13T09:27:46;31.80;1.00
6740;DHT22;3407;49.882;10.920;2023-07-13T09:32:47;32.70;1.00
6740;DHT22;3407;49.882;10.920;2023-07-13T09:37:45;33.30;1.00
6740;DHT22;3407;49.882;10.920;2023-07-13T09:42:41;33.40;1.00
6740;DHT22;3407;49.882;10.920;2023-07-13T09:47:39;33.50;1.00
6740;DHT22;3407;49.882;10.920;2023-07-13T09:52:47;34.40;1.00
6740;DHT22;3407;49.882;10.920;2023-07-13T09:57:47;35.40;1.00
6740;DHT22;3407;49.882;10.920;2023-07-13T10:02:43;36.50;1.00
6740;DHT22;3407;49.882;10.920;2023-07-13T10:07:44;35.70;1.00
6740;DHT22;3407;49.882;10.920;2023-07-13T10:12:39;34.40;1.00
6740;DHT22;3407;49.882;10.920;2023-07-13T10:17:35;32.80;1.00
6740;DHT22;3407;49.882;10.920;2023-07-13T10:22:56;33.20;1.00
6740;DHT22;3407;49.882;10.920;2023-07-13T10:27:58;35.00;1.00
6740;DHT22;3407;49.882;10.920;2023-07-13T10:33:00;36.40;1.00
6740;DHT22;3407;49.882;10.920;2023-07-13T10:38:10;37.80;1.00
6740;DHT22;3407;49.882;10.920;2023-07-13T10:43:15;37.50;1.00
6740;DHT22;3407;49.882;10.920;2023-07-13T10:48:13;37.50;1.00
6740;DHT22;3407;49.882;10.920;2023-07-13T10:53:35;38.80;1.00
6740;DHT22;3407;49.882;10.920;2023-07-13T10:58:39;39.10;1.00
6740;DHT22;3407;49.882;10.920;2023-07-13T11:03:50;39.70;1.00
6740;DHT22;3407;49.882;10.920;2023-07-13T11:08:53;38.10;1.00
6740;DHT22;3407;49.882;10.920;2023-07-13T11:18:49;39.60;1.00
6740;DHT22;3407;49.882;10.920;2023-07-13T11:23:53;40.40;1.00
6740;DHT22;3407;49.882;10.920;2023-07-13T11:28:49;39.70;1.00
6740;DHT22;3407;49.882;10.920;2023-07-13T11:33:51;38.30;1.00
6740;DHT22;3407;49.882;10.920;2023-07-13T11:39:10;37.40;1.00
6740;DHT22;3407;49.882;10.920;2023-07-13T11:44:17;38.40;1.00
6740;DHT22;3407;49.882;10.920;2023-07-13T11:49:16;39.90;1.00
6740;DHT22;3407;49.882;10.920;2023-07-13T11:54:29;39.70;1.00
6740;DHT22;3407;49.882;10.920;2023-07-13T11:59:25;39.90;1.00
6740;DHT22;3407;49.882;10.920;2023-07-13T12:09:17;38.20;1.00
6740;DHT22;3407;49.882;10.920;2023-07-13T12:14:15;37.10;1.00
6740;DHT22;3407;49.882;10.920;2023-07-13T12:19:21;34.90;1.00
6740;DHT22;3407;49.882;10.920;2023-07-13T12:24:18;34.30;1.00
6740;DHT22;3407;49.882;10.920;2023-07-13T12:29:16;34.40;1.00
6740;DHT22;3407;49.882;10.920;2023-07-13T12:34:14;36.00;1.00
6740;DHT22;3407;49.882;10.920;2023-07-13T12:44:18;36.00;1.00
6740;DHT22;3407;49.882;10.920;2023-07-13T12:49:16;33.70;1.00
6740;DHT22;3407;49.882;10.920;2023-07-13T12:54:17;33.00;1.00
6740;DHT22;3407;49.882;10.920;2023-07-13T12:59:18;32.90;1.00
6740;DHT22;3407;49.882;10.920;2023-07-13T13:04:16;33.10;1.00
6740;DHT22;3407;49.882;10.920;2023-07-13T13:09:14;31.40;1.00
6740;DHT22;3407;49.882;10.920;2023-07-13T13:14:10;29.90;1.00
6740;DHT22;3407;49.882;10.920;2023-07-13T13:19:18;29.60;1.00
6740;DHT22;3407;49.882;10.920;2023-07-13T13:24:17;31.30;1.00
6740;DHT22;3407;49.882;10.920;2023-07-13T13:29:15;31.40;1.00
6740;DHT22;3407;49.882;10.920;2023-07-13T13:34:14;31.60;1.00
6740;DHT22;3407;49.882;10.920;2023-07-13T13:39:24;31.00;1.00
6740;DHT22;3407;49.882;10.920;2023-07-13T13:44:22;29.90;1.00
6740;DHT22;3407;49.882;10.920;2023-07-13T13:49:22;28.70;1.00
6740;DHT22;3407;49.882;10.920;2023-07-13T13:54:20;28.30;1.00
6740;DHT22;3407;49.882;10.920;2023-07-13T13:59:16;28.40;1.00
6740;DHT22;3407;49.882;10.920;2023-07-13T14:04:20;28.90;1.00
6740;DHT22;3407;49.882;10.920;2023-07-13T14:09:17;29.40;1.00
6740;DHT22;3407;49.882;10.920;2023-07-13T14:14:20;29.50;1.00
6740;DHT22;3407;49.882;10.920;2023-07-13T14:19:16;29.60;1.00
6740;DHT22;3407;49.882;10.920;2023-07-13T14:24:12;29.50;1.00
6740;DHT22;3407;49.882;10.920;2023-07-13T14:29:14;28.90;1.00
6740;DHT22;3407;49.882;10.920;2023-07-13T14:34:11;28.70;1.00
6740;DHT22;3407;49.882;10.920;2023-07-13T14:39:19;28.80;1.00
6740;DHT22;3407;49.882;10.920;2023-07-13T14:44:16;28.40;1.00
6740;DHT22;3407;49.882;10.920;2023-07-13T14:49:30;28.30;1.00
6740;DHT22;3407;49.882;10.920;2023-07-13T14:54:27;28.40;1.00
6740;DHT22;3407;49.882;10.920;2023-07-13T14:59:22;28.20;1.00
6740;DHT22;3407;49.882;10.920;2023-07-13T15:04:19;27.70;1.00
6740;DHT22;3407;49.882;10.920;2023-07-13T15:09:15;27.50;1.00
6740;DHT22;3407;49.882;10.920;2023-07-13T15:14:10;27.60;1.00
6740;DHT22;3407;49.882;10.920;2023-07-13T15:19:09;27.40;1.00
6740;DHT22;3407;49.882;10.920;2023-07-13T15:24:07;27.40;1.00
6740;DHT22;3407;49.882;10.920;2023-07-13T15:29:04;27.60;1.00
6740;DHT22;3407;49.882;10.920;2023-07-13T15:34:00;27.80;1.00
6740;DHT22;3407;49.882;10.920;2023-07-13T15:38:55;27.80;1.00
6740;DHT22;3407;49.882;10.920;2023-07-13T15:43:53;27.80;1.00
6740;DHT22;3407;49.882;10.920;2023-07-13T15:48:50;27.50;1.00
6740;DHT22;3407;49.882;10.920;2023-07-13T15:53:46;27.20;1.00
6740;DHT22;3407;49.882;10.920;2023-07-13T15:58:43;27.10;1.00
6740;DHT22;3407;49.882;10.920;2023-07-13T16:03:39;27.00;1.00
6740;DHT22;3407;49.882;10.920;2023-07-13T16:08:34;26.80;1.00
6740;DHT22;3407;49.882;10.920;2023-07-13T16:13:30;26.70;1.00
6740;DHT22;3407;49.882;10.920;2023-07-13T16:18:26;26.50;1.00
6740;DHT22;3407;49.882;10.920;2023-07-13T16:23:22;26.30;1.00
6740;DHT22;3407;49.882;10.920;2023-07-13T16:28:17;26.00;1.00
6740;DHT22;3407;49.882;10.920;2023-07-13T16:33:13;26.00;1.00
6740;DHT22;3407;49.882;10.920;2023-07-13T16:38:20;26.20;1.00
6740;DHT22;3407;49.882;10.920;2023-07-13T16:43:18;26.20;1.00
6740;DHT22;3407;49.882;10.920;2023-07-13T16:48:19;26.10;1.00
6740;DHT22;3407;49.882;10.920;2023-07-13T16:53:23;26.00;1.00
6740;DHT22;3407;49.882;10.920;2023-07-13T16:58:19;26.10;1.00
6740;DHT22;3407;49.882;10.920;2023-07-13T17:03:16;26.20;1.00
6740;DHT22;3407;49.882;10.920;2023-07-13T17:08:17;26.20;1.00
6740;DHT22;3407;49.882;10.920;2023-07-13T17:13:17;25.90;1.00
6740;DHT22;3407;49.882;10.920;2023-07-13T17:18:13;25.70;1.00
6740;DHT22;3407;49.882;10.920;2023-07-13T17:23:16;25.50;1.00
6740;DHT22;3407;49.882;10.920;2023-07-13T17:28:12;25.40;1.00
6740;DHT22;3407;49.882;10.920;2023-07-13T17:33:29;25.30;1.00
6740;DHT22;3407;49.882;10.920;2023-07-13T17:38:51;25.10;1.00
6740;DHT22;3407;49.882;10.920;2023-07-13T17:43:50;24.90;1.00
6740;DHT22;3407;49.882;10.920;2023-07-13T17:48:46;24.70;1.00
6740;DHT22;3407;49.882;10.920;2023-07-13T17:53:44;24.50;1.00
6740;DHT22;3407;49.882;10.920;2023-07-13T17:58:40;24.40;1.00
6740;DHT22;3407;49.882;10.920;2023-07-13T18:03:40;24.30;1.00
6740;DHT22;3407;49.882;10.920;2023-07-13T18:08:53;24.10;1.00
6740;DHT22;3407;49.882;10.920;2023-07-13T18:13:49;24.00;1.00
6740;DHT22;3407;49.882;10.920;2023-07-13T18:18:45;23.80;1.00
6740;DHT22;3407;49.882;10.920;2023-07-13T18:23:41;23.80;1.00
6740;DHT22;3407;49.882;10.920;2023-07-13T18:28:36;23.60;1.00
6740;DHT22;3407;49.882;10.920;2023-07-13T18:33:33;23.40;1.00
6740;DHT22;3407;49.882;10.920;2023-07-13T18:38:29;23.30;1.00
6740;DHT22;3407;49.882;10.920;2023-07-13T18:43:26;23.20;1.00
6740;DHT22;3407;49.882;10.920;2023-07-13T18:48:24;23.10;1.00
6740;DHT22;3407;49.882;10.920;2023-07-13T18:53:20;22.90;1.00
6740;DHT22;3407;49.882;10.920;2023-07-13T18:58:15;22.80;1.00
6740;DHT22;3407;49.882;10.920;2023-07-13T19:03:17;22.70;1.00
6740;DHT22;3407;49.882;10.920;2023-07-13T19:08:19;22.50;1.00
6740;DHT22;3407;49.882;10.920;2023-07-13T19:13:20;22.40;1.00
6740;DHT22;3407;49.882;10.920;2023-07-13T19:18:18;22.20;1.00
6740;DHT22;3407;49.882;10.920;2023-07-13T19:23:36;22.10;1.00
6740;DHT22;3407;49.882;10.920;2023-07-13T19:28:36;21.90;1.00
6740;DHT22;3407;49.882;10.920;2023-07-13T19:33:33;21.80;1.00
6740;DHT22;3407;49.882;10.920;2023-07-13T19:38:29;21.70;1.00
6740;DHT22;3407;49.882;10.920;2023-07-13T19:43:24;21.50;1.00
6740;DHT22;3407;49.882;10.920;2023-07-13T19:48:20;21.30;2.10
6740;DHT22;3407;49.882;10.920;2023-07-13T19:53:18;21.10;2.40
6740;DHT22;3407;49.882;10.920;2023-07-13T19:58:17;21.00;4.10
6740;DHT22;3407;49.882;10.920;2023-07-13T20:03:13;20.80;6.00
6740;DHT22;3407;49.882;10.920;2023-07-13T20:08:17;20.70;8.70
6740;DHT22;3407;49.882;10.920;2023-07-13T20:13:14;20.60;10.70
6740;DHT22;3407;49.882;10.920;2023-07-13T20:18:14;20.50;13.10
6740;DHT22;3407;49.882;10.920;2023-07-13T20:23:13;20.30;14.20
6740;DHT22;3407;49.882;10.920;2023-07-13T20:28:09;20.00;13.60
6740;DHT22;3407;49.882;10.920;2023-07-13T20:33:13;19.70;15.40
6740;DHT22;3407;49.882;10.920;2023-07-13T20:38:12;19.50;18.20
6740;DHT22;3407;49.882;10.920;2023-07-13T20:43:08;19.40;21.10
6740;DHT22;3407;49.882;10.920;2023-07-13T20:53:26;19.40;23.50
6740;DHT22;3407;49.882;10.920;2023-07-13T20:58:22;19.30;25.50
6740;DHT22;3407;49.882;10.920;2023-07-13T21:03:26;19.00;27.30
6740;DHT22;3407;49.882;10.920;2023-07-13T21:08:24;18.80;30.40
6740;DHT22;3407;49.882;10.920;2023-07-13T21:13:19;18.70;33.00
6740;DHT22;3407;49.882;10.920;2023-07-13T21:18:21;18.60;37.20
6740;DHT22;3407;49.882;10.920;2023-07-13T21:23:28;18.50;39.10
6740;DHT22;3407;49.882;10.920;2023-07-13T21:28:25;18.30;42.00
6740;DHT22;3407;49.882;10.920;2023-07-13T21:33:21;18.10;46.90
6740;DHT22;3407;49.882;10.920;2023-07-13T21:38:22;17.90;51.60
6740;DHT22;3407;49.882;10.920;2023-07-13T21:43:20;17.70;57.60
6740;DHT22;3407;49.882;10.920;2023-07-13T21:48:16;17.70;65.20
6740;DHT22;3407;49.882;10.920;2023-07-13T21:58:18;17.50;72.60
6740;DHT22;3407;49.882;10.920;2023-07-13T22:03:24;17.40;79.80
6740;DHT22;3407;49.882;10.920;2023-07-13T22:08:25;17.40;86.30
6740;DHT22;3407;49.882;10.920;2023-07-13T22:13:23;17.40;89.70
6740;DHT22;3407;49.882;10.920;2023-07-13T22:18:20;17.40;90.00
6740;DHT22;3407;49.882;10.920;2023-07-13T22:23:22;17.30;91.20
6740;DHT22;3407;49.882;10.920;2023-07-13T22:28:21;17.00;94.20
6740;DHT22;3407;49.882;10.920;2023-07-13T22:33:19;16.80;99.90
6740;DHT22;3407;49.882;10.920;2023-07-13T22:38:18;16.70;99.90
6740;DHT22;3407;49.882;10.920;2023-07-13T22:43:25;16.60;99.90
6740;DHT22;3407;49.882;10.920;2023-07-13T22:48:26;16.60;99.90
6740;DHT22;3407;49.882;10.920;2023-07-13T22:53:28;16.50;99.90
6740;DHT22;3407;49.882;10.920;2023-07-13T22:58:26;16.40;99.90
6740;DHT22;3407;49.882;10.920;2023-07-13T23:03:21;16.40;99.90
6740;DHT22;3407;49.882;10.920;2023-07-13T23:08:17;16.60;99.90
6740;DHT22;3407;49.882;10.920;2023-07-13T23:13:14;16.50;99.90
6740;DHT22;3407;49.882;10.920;2023-07-13T23:18:10;16.20;99.90
6740;DHT22;3407;49.882;10.920;2023-07-13T23:23:14;16.00;99.90
6740;DHT22;3407;49.882;10.920;2023-07-13T23:28:10;15.90;99.90
6740;DHT22;3407;49.882;10.920;2023-07-13T23:33:24;15.70;99.90
6740;DHT22;3407;49.882;10.920;2023-07-13T23:38:21;15.60;99.90
6740;DHT22;3407;49.882;10.920;2023-07-13T23:43:17;15.60;99.90
6740;DHT22;3407;49.882;10.920;2023-07-13T23:48:13;15.60;99.90
6740;DHT22;3407;49.882;10.920;2023-07-13T23:53:16;15.60;99.90
6740;DHT22;3407;49.882;10.920;2023-07-13T23:58:11;15.70;99.90
